sensor_id;sensor_type;location;lat;lon;timestamp;temperature;humidity
10654;DHT22;5375;51.250;6.776;2022-12-07T00:00:27;18.60;49.40
10654;DHT22;5375;51.250;6.776;2022-12-07T00:02:53;18.60;49.40
10654;DHT22;5375;51.250;6.776;2022-12-07T00:05:19;18.60;49.40
10654;DHT22;5375;51.250;6.776;2022-12-07T00:07:44;18.60;49.40
10654;DHT22;5375;51.250;6.776;2022-12-07T00:10:10;18.60;49.40
10654;DHT22;5375;51.250;6.776;2022-12-07T00:12:36;18.60;49.40
10654;DHT22;5375;51.250;6.776;2022-12-07T00:15:01;18.60;49.40
10654;DHT22;5375;51.250;6.776;2022-12-07T00:17:27;18.60;49.40
10654;DHT22;5375;51.250;6.776;2022-12-07T00:19:53;18.60;49.30
10654;DHT22;5375;51.250;6.776;2022-12-07T00:22:18;18.60;49.30
10654;DHT22;5375;51.250;6.776;2022-12-07T00:24:44;18.60;49.30
10654;DHT22;5375;51.250;6.776;2022-12-07T00:27:09;18.60;49.30
10654;DHT22;5375;51.250;6.776;2022-12-07T00:29:35;18.60;49.30
10654;DHT22;5375;51.250;6.776;2022-12-07T00:32:02;18.60;49.30
10654;DHT22;5375;51.250;6.776;2022-12-07T00:34:28;18.60;49.30
10654;DHT22;5375;51.250;6.776;2022-12-07T00:36:54;18.60;49.30
10654;DHT22;5375;51.250;6.776;2022-12-07T00:39:19;18.60;49.30
10654;DHT22;5375;51.250;6.776;2022-12-07T00:41:45;18.60;49.20
10654;DHT22;5375;51.250;6.776;2022-12-07T00:44:10;18.60;49.20
10654;DHT22;5375;51.250;6.776;2022-12-07T00:46:36;18.60;49.20
10654;DHT22;5375;51.250;6.776;2022-12-07T00:49:03;18.60;49.20
10654;DHT22;5375;51.250;6.776;2022-12-07T00:51:28;18.60;49.20
10654;DHT22;5375;51.250;6.776;2022-12-07T00:53:54;18.60;49.20
10654;DHT22;5375;51.250;6.776;2022-12-07T00:56:25;18.60;49.20
10654;DHT22;5375;51.250;6.776;2022-12-07T00:58:59;18.60;49.20
10654;DHT22;5375;51.250;6.776;2022-12-07T01:01:27;18.60;49.20
10654;DHT22;5375;51.250;6.776;2022-12-07T01:03:53;18.60;49.20
10654;DHT22;5375;51.250;6.776;2022-12-07T01:06:20;18.60;49.20
10654;DHT22;5375;51.250;6.776;2022-12-07T01:08:46;18.60;49.20
10654;DHT22;5375;51.250;6.776;2022-12-07T01:11:14;18.60;49.10
10654;DHT22;5375;51.250;6.776;2022-12-07T01:13:41;18.60;49.10
10654;DHT22;5375;51.250;6.776;2022-12-07T01:16:07;18.60;49.10
10654;DHT22;5375;51.250;6.776;2022-12-07T01:18:34;18.60;49.10
10654;DHT22;5375;51.250;6.776;2022-12-07T01:23:34;18.60;49.10
10654;DHT22;5375;51.250;6.776;2022-12-07T01:26:07;18.60;49.10
10654;DHT22;5375;51.250;6.776;2022-12-07T01:28:33;18.60;49.10
10654;DHT22;5375;51.250;6.776;2022-12-07T01:31:01;18.60;49.10
10654;DHT22;5375;51.250;6.776;2022-12-07T01:33:30;18.60;49.10
10654;DHT22;5375;51.250;6.776;2022-12-07T01:36:03;18.60;49.10
10654;DHT22;5375;51.250;6.776;2022-12-07T01:38:30;18.60;49.10
10654;DHT22;5375;51.250;6.776;2022-12-07T01:40:56;18.50;49.10
10654;DHT22;5375;51.250;6.776;2022-12-07T01:43:24;18.60;49.10
10654;DHT22;5375;51.250;6.776;2022-12-07T01:45:51;18.60;49.10
10654;DHT22;5375;51.250;6.776;2022-12-07T01:48:20;18.50;49.00
10654;DHT22;5375;51.250;6.776;2022-12-07T01:50:49;18.60;49.10
10654;DHT22;5375;51.250;6.776;2022-12-07T01:53:16;18.50;49.10
10654;DHT22;5375;51.250;6.776;2022-12-07T01:55:45;18.50;49.10
10654;DHT22;5375;51.250;6.776;2022-12-07T01:58:12;18.60;49.10
10654;DHT22;5375;51.250;6.776;2022-12-07T02:00:38;18.60;49.10
10654;DHT22;5375;51.250;6.776;2022-12-07T02:03:09;18.50;49.00
10654;DHT22;5375;51.250;6.776;2022-12-07T02:05:38;18.50;49.00
10654;DHT22;5375;51.250;6.776;2022-12-07T02:08:06;18.50;49.10
10654;DHT22;5375;51.250;6.776;2022-12-07T02:10:32;18.50;49.00
10654;DHT22;5375;51.250;6.776;2022-12-07T02:13:08;18.50;49.00
10654;DHT22;5375;51.250;6.776;2022-12-07T02:18:17;18.50;49.10
10654;DHT22;5375;51.250;6.776;2022-12-07T02:26:37;18.50;49.00
10654;DHT22;5375;51.250;6.776;2022-12-07T02:29:25;18.50;49.00
10654;DHT22;5375;51.250;6.776;2022-12-07T02:32:03;18.50;49.00
10654;DHT22;5375;51.250;6.776;2022-12-07T02:34:50;18.50;49.10
10654;DHT22;5375;51.250;6.776;2022-12-07T02:37:42;18.50;49.00
10654;DHT22;5375;51.250;6.776;2022-12-07T02:40:20;18.50;49.10
10654;DHT22;5375;51.250;6.776;2022-12-07T02:42:50;18.50;49.10
10654;DHT22;5375;51.250;6.776;2022-12-07T02:45:22;18.50;49.10
10654;DHT22;5375;51.250;6.776;2022-12-07T02:47:51;18.50;49.20
10654;DHT22;5375;51.250;6.776;2022-12-07T02:50:21;18.50;49.40
10654;DHT22;5375;51.250;6.776;2022-12-07T02:52:47;18.50;50.10
10654;DHT22;5375;51.250;6.776;2022-12-07T02:55:17;18.50;49.70
10654;DHT22;5375;51.250;6.776;2022-12-07T02:58:14;18.50;49.80
10654;DHT22;5375;51.250;6.776;2022-12-07T03:01:39;18.50;49.90
10654;DHT22;5375;51.250;6.776;2022-12-07T03:03:41;18.50;49.90
10654;DHT22;5375;51.250;6.776;2022-12-07T03:06:22;18.50;49.80
10654;DHT22;5375;51.250;6.776;2022-12-07T03:08:57;18.50;49.60
10654;DHT22;5375;51.250;6.776;2022-12-07T03:11:48;18.50;49.50
10654;DHT22;5375;51.250;6.776;2022-12-07T03:14:30;18.50;49.40
10654;DHT22;5375;51.250;6.776;2022-12-07T03:17:04;18.50;49.40
10654;DHT22;5375;51.250;6.776;2022-12-07T03:19:32;18.50;49.40
10654;DHT22;5375;51.250;6.776;2022-12-07T03:22:05;18.50;49.40
10654;DHT22;5375;51.250;6.776;2022-12-07T03:24:44;18.50;49.40
10654;DHT22;5375;51.250;6.776;2022-12-07T03:27:16;18.50;49.30
10654;DHT22;5375;51.250;6.776;2022-12-07T03:29:49;18.50;49.30
10654;DHT22;5375;51.250;6.776;2022-12-07T03:32:34;18.50;49.30
10654;DHT22;5375;51.250;6.776;2022-12-07T03:37:57;18.50;49.30
10654;DHT22;5375;51.250;6.776;2022-12-07T03:40:41;18.50;49.20
10654;DHT22;5375;51.250;6.776;2022-12-07T03:43:09;18.50;49.70
10654;DHT22;5375;51.250;6.776;2022-12-07T03:45:44;18.40;49.10
10654;DHT22;5375;51.250;6.776;2022-12-07T03:50:55;18.50;49.20
10654;DHT22;5375;51.250;6.776;2022-12-07T03:53:37;18.50;49.20
10654;DHT22;5375;51.250;6.776;2022-12-07T03:56:06;18.40;49.10
10654;DHT22;5375;51.250;6.776;2022-12-07T03:58:34;18.50;49.20
10654;DHT22;5375;51.250;6.776;2022-12-07T04:01:00;18.50;49.20
10654;DHT22;5375;51.250;6.776;2022-12-07T04:03:25;18.40;49.10
10654;DHT22;5375;51.250;6.776;2022-12-07T04:05:51;18.40;49.20
10654;DHT22;5375;51.250;6.776;2022-12-07T04:08:16;18.40;49.70
10654;DHT22;5375;51.250;6.776;2022-12-07T04:10:42;18.50;49.90
10654;DHT22;5375;51.250;6.776;2022-12-07T04:13:08;18.40;49.80
10654;DHT22;5375;51.250;6.776;2022-12-07T04:15:33;18.40;49.70
10654;DHT22;5375;51.250;6.776;2022-12-07T04:17:59;18.40;49.70
10654;DHT22;5375;51.250;6.776;2022-12-07T04:20:24;18.40;49.60
10654;DHT22;5375;51.250;6.776;2022-12-07T04:22:50;18.50;49.60
10654;DHT22;5375;51.250;6.776;2022-12-07T04:25:16;18.40;49.40
10654;DHT22;5375;51.250;6.776;2022-12-07T04:27:41;18.40;49.40
10654;DHT22;5375;51.250;6.776;2022-12-07T04:30:08;18.50;49.40
10654;DHT22;5375;51.250;6.776;2022-12-07T04:32:33;18.50;49.30
10654;DHT22;5375;51.250;6.776;2022-12-07T04:34:59;18.50;49.30
10654;DHT22;5375;51.250;6.776;2022-12-07T04:37:25;18.50;49.30
10654;DHT22;5375;51.250;6.776;2022-12-07T04:39:50;18.40;49.20
10654;DHT22;5375;51.250;6.776;2022-12-07T04:42:16;18.40;49.20
10654;DHT22;5375;51.250;6.776;2022-12-07T04:44:42;18.40;49.30
10654;DHT22;5375;51.250;6.776;2022-12-07T04:47:07;18.40;49.40
10654;DHT22;5375;51.250;6.776;2022-12-07T04:49:33;18.40;49.40
10654;DHT22;5375;51.250;6.776;2022-12-07T04:51:58;18.40;49.50
10654;DHT22;5375;51.250;6.776;2022-12-07T04:54:24;18.40;49.50
10654;DHT22;5375;51.250;6.776;2022-12-07T04:56:50;18.40;49.50
10654;DHT22;5375;51.250;6.776;2022-12-07T04:59:16;18.40;49.50
10654;DHT22;5375;51.250;6.776;2022-12-07T05:01:43;18.40;49.50
10654;DHT22;5375;51.250;6.776;2022-12-07T05:04:09;18.40;49.50
10654;DHT22;5375;51.250;6.776;2022-12-07T05:06:35;18.40;49.50
10654;DHT22;5375;51.250;6.776;2022-12-07T05:09:02;18.40;49.50
10654;DHT22;5375;51.250;6.776;2022-12-07T05:11:27;18.40;49.70
10654;DHT22;5375;51.250;6.776;2022-12-07T05:14:10;18.50;50.00
10654;DHT22;5375;51.250;6.776;2022-12-07T05:16:37;18.50;50.10
10654;DHT22;5375;51.250;6.776;2022-12-07T05:19:03;18.50;50.20
10654;DHT22;5375;51.250;6.776;2022-12-07T05:21:28;18.50;50.40
10654;DHT22;5375;51.250;6.776;2022-12-07T05:23:54;18.60;50.40
10654;DHT22;5375;51.250;6.776;2022-12-07T05:26:20;18.60;50.50
10654;DHT22;5375;51.250;6.776;2022-12-07T05:28:50;18.60;50.60
10654;DHT22;5375;51.250;6.776;2022-12-07T05:31:16;18.60;50.70
10654;DHT22;5375;51.250;6.776;2022-12-07T05:33:41;18.60;50.70
10654;DHT22;5375;51.250;6.776;2022-12-07T05:36:07;18.60;50.70
10654;DHT22;5375;51.250;6.776;2022-12-07T05:38:33;18.60;50.80
10654;DHT22;5375;51.250;6.776;2022-12-07T05:41:03;18.60;50.80
10654;DHT22;5375;51.250;6.776;2022-12-07T05:43:29;18.60;50.80
10654;DHT22;5375;51.250;6.776;2022-12-07T05:45:55;18.70;50.70
10654;DHT22;5375;51.250;6.776;2022-12-07T05:48:20;18.70;50.60
10654;DHT22;5375;51.250;6.776;2022-12-07T05:50:50;18.70;50.40
10654;DHT22;5375;51.250;6.776;2022-12-07T05:53:15;18.70;50.30
10654;DHT22;5375;51.250;6.776;2022-12-07T05:55:41;18.70;50.30
10654;DHT22;5375;51.250;6.776;2022-12-07T05:58:07;18.70;50.20
10654;DHT22;5375;51.250;6.776;2022-12-07T06:00:54;18.70;49.70
10654;DHT22;5375;51.250;6.776;2022-12-07T06:03:20;18.70;50.30
10654;DHT22;5375;51.250;6.776;2022-12-07T06:05:45;18.70;50.20
10654;DHT22;5375;51.250;6.776;2022-12-07T06:08:11;18.70;50.30
10654;DHT22;5375;51.250;6.776;2022-12-07T06:10:37;18.70;50.20
10654;DHT22;5375;51.250;6.776;2022-12-07T06:13:03;18.70;50.20
10654;DHT22;5375;51.250;6.776;2022-12-07T06:15:38;18.80;50.20
10654;DHT22;5375;51.250;6.776;2022-12-07T06:18:13;18.70;50.10
10654;DHT22;5375;51.250;6.776;2022-12-07T06:20:39;18.70;50.10
10654;DHT22;5375;51.250;6.776;2022-12-07T06:23:04;18.70;50.10
10654;DHT22;5375;51.250;6.776;2022-12-07T06:25:30;18.70;50.10
10654;DHT22;5375;51.250;6.776;2022-12-07T06:27:55;18.70;50.10
10654;DHT22;5375;51.250;6.776;2022-12-07T06:30:21;18.70;50.10
10654;DHT22;5375;51.250;6.776;2022-12-07T06:32:47;18.70;50.10
10654;DHT22;5375;51.250;6.776;2022-12-07T06:35:12;18.70;50.10
10654;DHT22;5375;51.250;6.776;2022-12-07T06:37:38;18.70;50.10
10654;DHT22;5375;51.250;6.776;2022-12-07T06:40:04;18.70;50.10
10654;DHT22;5375;51.250;6.776;2022-12-07T06:42:30;18.70;50.00
10654;DHT22;5375;51.250;6.776;2022-12-07T06:44:56;18.70;50.00
10654;DHT22;5375;51.250;6.776;2022-12-07T06:47:21;18.70;50.00
10654;DHT22;5375;51.250;6.776;2022-12-07T06:49:47;18.70;50.00
10654;DHT22;5375;51.250;6.776;2022-12-07T06:52:12;18.70;50.00
10654;DHT22;5375;51.250;6.776;2022-12-07T06:54:38;18.70;50.00
10654;DHT22;5375;51.250;6.776;2022-12-07T06:57:04;18.70;50.00
10654;DHT22;5375;51.250;6.776;2022-12-07T06:59:29;18.70;50.00
10654;DHT22;5375;51.250;6.776;2022-12-07T07:01:55;18.70;49.60
10654;DHT22;5375;51.250;6.776;2022-12-07T07:04:20;18.60;49.90
10654;DHT22;5375;51.250;6.776;2022-12-07T07:06:46;18.70;49.90
10654;DHT22;5375;51.250;6.776;2022-12-07T07:09:12;18.70;49.90
10654;DHT22;5375;51.250;6.776;2022-12-07T07:11:38;18.70;49.90
10654;DHT22;5375;51.250;6.776;2022-12-07T07:14:04;18.70;49.90
10654;DHT22;5375;51.250;6.776;2022-12-07T07:16:30;18.60;49.80
10654;DHT22;5375;51.250;6.776;2022-12-07T07:18:56;18.70;49.80
10654;DHT22;5375;51.250;6.776;2022-12-07T07:21:22;18.70;49.80
10654;DHT22;5375;51.250;6.776;2022-12-07T07:23:49;18.70;49.80
10654;DHT22;5375;51.250;6.776;2022-12-07T07:26:15;18.70;49.80
10654;DHT22;5375;51.250;6.776;2022-12-07T07:28:40;18.70;49.80
10654;DHT22;5375;51.250;6.776;2022-12-07T07:31:06;18.70;49.80
10654;DHT22;5375;51.250;6.776;2022-12-07T07:33:32;18.60;49.70
10654;DHT22;5375;51.250;6.776;2022-12-07T07:35:57;18.60;49.80
10654;DHT22;5375;51.250;6.776;2022-12-07T07:38:23;18.60;49.70
10654;DHT22;5375;51.250;6.776;2022-12-07T07:40:49;18.60;49.70
10654;DHT22;5375;51.250;6.776;2022-12-07T07:43:14;18.60;49.70
10654;DHT22;5375;51.250;6.776;2022-12-07T07:45:40;18.70;49.70
10654;DHT22;5375;51.250;6.776;2022-12-07T07:48:06;18.60;49.70
10654;DHT22;5375;51.250;6.776;2022-12-07T07:50:31;18.60;49.70
10654;DHT22;5375;51.250;6.776;2022-12-07T07:52:57;18.70;49.70
10654;DHT22;5375;51.250;6.776;2022-12-07T07:55:23;18.70;49.70
10654;DHT22;5375;51.250;6.776;2022-12-07T07:57:49;18.60;49.70
10654;DHT22;5375;51.250;6.776;2022-12-07T08:00:15;18.60;49.70
10654;DHT22;5375;51.250;6.776;2022-12-07T08:02:41;18.60;49.70
10654;DHT22;5375;51.250;6.776;2022-12-07T08:05:08;18.70;49.70
10654;DHT22;5375;51.250;6.776;2022-12-07T08:07:34;18.70;49.70
10654;DHT22;5375;51.250;6.776;2022-12-07T08:10:00;18.60;49.70
10654;DHT22;5375;51.250;6.776;2022-12-07T08:12:26;18.60;49.70
10654;DHT22;5375;51.250;6.776;2022-12-07T08:14:51;18.60;49.70
10654;DHT22;5375;51.250;6.776;2022-12-07T08:17:17;18.70;49.70
10654;DHT22;5375;51.250;6.776;2022-12-07T08:19:42;18.70;49.80
10654;DHT22;5375;51.250;6.776;2022-12-07T08:22:08;18.70;49.80
10654;DHT22;5375;51.250;6.776;2022-12-07T08:24:34;18.70;49.80
10654;DHT22;5375;51.250;6.776;2022-12-07T08:27:00;18.70;49.80
10654;DHT22;5375;51.250;6.776;2022-12-07T08:29:26;18.70;49.90
10654;DHT22;5375;51.250;6.776;2022-12-07T08:31:51;18.70;49.90
10654;DHT22;5375;51.250;6.776;2022-12-07T08:34:17;18.70;49.90
10654;DHT22;5375;51.250;6.776;2022-12-07T08:36:43;18.70;49.90
10654;DHT22;5375;51.250;6.776;2022-12-07T08:39:09;18.70;50.00
10654;DHT22;5375;51.250;6.776;2022-12-07T08:41:34;18.70;50.00
